Time;durP1;ratioP1;P1;durP2;ratioP2;P2;SDS_P1;SDS_P2;PMS_P1;PMS_P2;Temp;Humidity;BMP_temperature;BMP_pressure;BME280_temperature;BME280_humidity;BME280_pressure;Samples;Min_cycle;Max_cycle;Signal;HPM_P1;HPM_P2
2024/01/10 00:00:48;;;;;;;;;;;-2.10;91.50;;;;;;5088291;28;19928;-75
2024/01/10 00:03:14;;;;;;;;;;;-2.00;91.80;;;;;;5085954;28;19955;-76
2024/01/10 00:05:39;;;;;;;;;;;-3.80;91.40;;;;;;5085883;28;19930;-75
2024/01/10 00:08:06;;;;;;;;;;;-2.20;92.00;;;;;;5086455;28;19932;-76
2024/01/10 00:10:31;;;;;;;;;;;-3.80;91.80;;;;;;5068923;28;20006;-76
2024/01/10 00:12:57;;;;;;;;;;;-3.80;92.00;;;;;;5086905;28;20003;-75
2024/01/10 00:15:22;;;;;;;;;;;-3.10;92.30;;;;;;5084992;28;19946;-75
2024/01/10 00:17:48;;;;;;;;;;;-3.10;92.50;;;;;;5058939;28;19932;-75
2024/01/10 00:20:14;;;;;;;;;;;-2.80;92.70;;;;;;5084595;28;19996;-75
2024/01/10 00:22:40;;;;;;;;;;;-3.90;92.50;;;;;;5084726;28;20461;-75
2024/01/10 00:25:05;;;;;;;;;;;-2.30;93.30;;;;;;5069588;28;20755;-75
2024/01/10 00:27:31;;;;;;;;;;;-3.90;92.80;;;;;;5086596;28;19923;-75
2024/01/10 00:29:57;;;;;;;;;;;-3.90;92.90;;;;;;5102188;28;19931;-75
2024/01/10 00:32:25;;;;;;;;;;;-3.90;92.90;;;;;;5103610;28;20421;-75
2024/01/10 00:34:51;;;;;;;;;;;-2.30;93.40;;;;;;5086084;28;19928;-75
2024/01/10 00:37:16;;;;;;;;;;;-3.30;93.30;;;;;;5070392;28;19971;-75
2024/01/10 00:39:42;;;;;;;;;;;-4.00;93.20;;;;;;5085030;28;20362;-75
2024/01/10 00:42:08;;;;;;;;;;;-3.30;93.40;;;;;;5069518;28;20169;-75
2024/01/10 00:44:34;;;;;;;;;;;-4.00;93.30;;;;;;5070356;28;19935;-75
2024/01/10 00:47:00;;;;;;;;;;;-3.70;93.40;;;;;;5084442;28;19927;-76
2024/01/10 00:49:26;;;;;;;;;;;-4.00;93.40;;;;;;5086060;28;20351;-74
2024/01/10 00:51:51;;;;;;;;;;;-2.90;93.80;;;;;;5067035;28;19927;-75
2024/01/10 00:54:17;;;;;;;;;;;-2.60;93.80;;;;;;5085765;28;19923;-75
2024/01/10 00:56:42;;;;;;;;;;;-2.00;93.80;;;;;;5066680;28;19936;-76
2024/01/10 00:59:09;;;;;;;;;;;-4.00;93.40;;;;;;5088930;28;19997;-75
2024/01/10 01:01:35;;;;;;;;;;;-4.10;93.40;;;;;;5071098;28;19932;-76
2024/01/10 01:04:01;;;;;;;;;;;-3.70;93.60;;;;;;5089750;28;19948;-75
2024/01/10 01:06:26;;;;;;;;;;;-4.00;93.50;;;;;;5070677;28;19931;-75
2024/01/10 01:08:52;;;;;;;;;;;-4.10;93.60;;;;;;5108628;27;19927;-75
2024/01/10 01:11:17;;;;;;;;;;;-2.10;94.20;;;;;;5089314;28;20397;-76
2024/01/10 01:13:43;;;;;;;;;;;-4.10;93.80;;;;;;5072562;28;19963;-76
2024/01/10 01:16:10;;;;;;;;;;;-4.10;93.80;;;;;;5088773;28;19931;-74
2024/01/10 01:18:37;;;;;;;;;;;-3.60;93.90;;;;;;5090166;28;19943;-75
2024/01/10 01:21:03;;;;;;;;;;;-2.80;94.00;;;;;;5088255;28;19928;-75
2024/01/10 01:23:28;;;;;;;;;;;-4.20;93.80;;;;;;5088036;28;19938;-75
2024/01/10 01:25:54;;;;;;;;;;;-2.80;94.20;;;;;;5071819;27;20401;-75
2024/01/10 01:28:20;;;;;;;;;;;-3.10;94.10;;;;;;5088167;28;20023;-75
2024/01/10 01:30:45;;;;;;;;;;;-4.30;93.80;;;;;;5107455;27;20006;-75
2024/01/10 01:33:11;;;;;;;;;;;-4.10;93.90;;;;;;5070498;28;19927;-75
2024/01/10 01:35:37;;;;;;;;;;;-4.30;93.90;;;;;;5089514;28;19949;-75
2024/01/10 01:38:02;;;;;;;;;;;-2.30;94.30;;;;;;5105101;27;19981;-75
2024/01/10 01:40:28;;;;;;;;;;;-4.30;93.80;;;;;;5089690;28;19931;-75
2024/01/10 01:42:59;;;;;;;;;;;-4.30;93.80;;;;;;5090520;28;19924;-75
2024/01/10 01:45:25;;;;;;;;;;;-4.40;93.90;;;;;;5085030;28;20423;-74
2024/01/10 01:47:51;;;;;;;;;;;-4.50;93.80;;;;;;5072516;28;20015;-75
2024/01/10 01:50:16;;;;;;;;;;;-3.10;94.30;;;;;;5090286;27;19928;-75
2024/01/10 01:52:43;;;;;;;;;;;-4.40;94.10;;;;;;5090112;28;19932;-74
2024/01/10 01:55:09;;;;;;;;;;;-4.00;94.20;;;;;;5072523;28;20007;-75
2024/01/10 01:57:35;;;;;;;;;;;-2.60;94.60;;;;;;5071893;28;19928;-75
2024/01/10 02:00:01;;;;;;;;;;;-4.30;94.20;;;;;;5072843;28;20022;-75
2024/01/10 02:02:28;;;;;;;;;;;-4.40;94.30;;;;;;5072013;28;20022;-75
2024/01/10 02:04:54;;;;;;;;;;;-2.20;94.90;;;;;;5107551;28;19946;-75
2024/01/10 02:07:20;;;;;;;;;;;-4.70;94.40;;;;;;5072791;27;19931;-75
2024/01/10 02:09:45;;;;;;;;;;;-3.10;95.00;;;;;;5086710;28;19934;-76
2024/01/10 02:12:11;;;;;;;;;;;-3.30;94.90;;;;;;5070519;28;20153;-77
2024/01/10 02:14:37;;;;;;;;;;;-4.40;94.60;;;;;;5071184;28;19927;-75
2024/01/10 02:17:02;;;;;;;;;;;-4.40;94.60;;;;;;5088582;28;19928;-75
2024/01/10 02:19:29;;;;;;;;;;;-4.40;94.70;;;;;;5089111;28;20184;-75
2024/01/10 02:21:56;;;;;;;;;;;-3.70;94.90;;;;;;5070964;28;19969;-75
2024/01/10 02:24:21;;;;;;;;;;;-4.40;95.10;;;;;;5070892;28;19932;-75
2024/01/10 02:26:47;;;;;;;;;;;-4.60;94.60;;;;;;5089464;28;19935;-75
2024/01/10 02:29:13;;;;;;;;;;;-4.40;94.60;;;;;;5087635;28;19931;-75
2024/01/10 02:31:39;;;;;;;;;;;-4.10;94.70;;;;;;5085239;27;19979;-75
2024/01/10 02:34:04;;;;;;;;;;;-4.50;94.70;;;;;;5068164;28;19970;-75
2024/01/10 02:36:30;;;;;;;;;;;-4.00;94.80;;;;;;5072377;28;19947;-75
2024/01/10 02:38:55;;;;;;;;;;;-2.90;95.10;;;;;;5088132;28;19936;-75
2024/01/10 02:41:21;;;;;;;;;;;-4.50;94.80;;;;;;5090137;28;19931;-75
2024/01/10 02:43:47;;;;;;;;;;;-4.40;94.90;;;;;;5069335;28;19931;-75
2024/01/10 02:46:13;;;;;;;;;;;-4.40;94.90;;;;;;5085665;28;19935;-75
2024/01/10 02:48:39;;;;;;;;;;;-3.20;95.20;;;;;;5088670;27;20346;-75
2024/01/10 02:51:04;;;;;;;;;;;-2.50;95.40;;;;;;5088098;28;19973;-75
2024/01/10 02:53:30;;;;;;;;;;;-4.40;95.00;;;;;;5086755;28;19931;-75
2024/01/10 02:55:55;;;;;;;;;;;-4.50;94.90;;;;;;5088801;28;19924;-75
2024/01/10 02:58:22;;;;;;;;;;;-4.50;95.00;;;;;;5089537;28;20010;-76
2024/01/10 03:00:53;;;;;;;;;;;-4.30;95.00;;;;;;5087751;28;19935;-75
2024/01/10 03:03:19;;;;;;;;;;;-4.50;94.90;;;;;;5087549;28;19924;-75
2024/01/10 03:05:53;;;;;;;;;;;-3.80;95.20;;;;;;5088324;28;19932;-75
2024/01/10 03:08:19;;;;;;;;;;;-2.10;95.60;;;;;;5071018;28;19931;-75
2024/01/10 03:10:45;;;;;;;;;;;-3.40;95.30;;;;;;5087834;28;21725;-75
2024/01/10 03:13:10;;;;;;;;;;;-4.50;95.10;;;;;;5068043;28;19946;-75
2024/01/10 03:15:36;;;;;;;;;;;-2.20;95.60;;;;;;5087272;28;20085;-75
2024/01/10 03:18:01;;;;;;;;;;;-2.60;95.50;;;;;;5069881;28;19927;-75
2024/01/10 03:20:27;;;;;;;;;;;-4.40;95.10;;;;;;5086373;28;20363;-75
2024/01/10 03:22:54;;;;;;;;;;;-4.40;95.10;;;;;;5087317;28;19963;-75
2024/01/10 03:25:19;;;;;;;;;;;-4.40;95.00;;;;;;5072763;28;19928;-74
2024/01/10 03:27:45;;;;;;;;;;;-3.50;95.40;;;;;;5070805;28;20299;-75
2024/01/10 03:30:10;;;;;;;;;;;-3.50;95.40;;;;;;5071880;28;19927;-75
2024/01/10 03:32:39;;;;;;;;;;;-4.40;95.20;;;;;;5087508;28;20225;-75
2024/01/10 03:35:05;;;;;;;;;;;-3.20;95.50;;;;;;5085419;28;19931;-75
2024/01/10 03:37:31;;;;;;;;;;;-4.30;95.20;;;;;;5071744;28;20026;-76
2024/01/10 03:39:58;;;;;;;;;;;-3.20;95.70;;;;;;5072150;28;20007;-73
2024/01/10 03:42:24;;;;;;;;;;;-2.60;95.70;;;;;;5068866;28;19934;-75
2024/01/10 03:44:50;;;;;;;;;;;-2.10;95.90;;;;;;5088299;27;20285;-75
2024/01/10 03:47:15;;;;;;;;;;;-4.20;95.40;;;;;;5086498;28;19928;-76
2024/01/10 03:49:42;;;;;;;;;;;-2.90;96.00;;;;;;5059706;28;20006;-75
2024/01/10 03:52:08;;;;;;;;;;;-4.60;95.60;;;;;;5071465;28;20001;-75
2024/01/10 03:54:33;;;;;;;;;;;-4.30;95.70;;;;;;5087124;28;19936;-75
2024/01/10 03:56:59;;;;;;;;;;;-3.10;96.10;;;;;;5101332;27;19927;-75
2024/01/10 03:59:25;;;;;;;;;;;-4.50;95.90;;;;;;5084341;28;19920;-75
2024/01/10 04:01:50;;;;;;;;;;;-1.90;96.60;;;;;;5070425;28;20247;-75
2024/01/10 04:04:16;;;;;;;;;;;-3.20;96.40;;;;;;5086592;28;19928;-74
2024/01/10 04:06:41;;;;;;;;;;;-4.30;96.40;;;;;;5087264;28;20287;-75
2024/01/10 04:09:09;;;;;;;;;;;-2.30;96.90;;;;;;5067275;28;19946;-75
2024/01/10 04:11:41;;;;;;;;;;;-2.40;96.80;;;;;;5085783;28;20020;-75
2024/01/10 04:14:06;;;;;;;;;;;-3.80;96.50;;;;;;5054214;27;19977;-76
2024/01/10 04:16:32;;;;;;;;;;;-4.30;96.40;;;;;;5088089;28;19924;-75
2024/01/10 04:18:58;;;;;;;;;;;-4.30;96.50;;;;;;5069459;28;20457;-76
2024/01/10 04:21:23;;;;;;;;;;;-2.20;96.80;;;;;;5070351;28;20048;-76
2024/01/10 04:23:49;;;;;;;;;;;-4.40;96.20;;;;;;5086709;27;19968;-75
2024/01/10 04:26:15;;;;;;;;;;;-4.50;96.10;;;;;;5071007;28;20417;-76
2024/01/10 04:28:41;;;;;;;;;;;-2.60;96.50;;;;;;5085456;28;20799;-75
2024/01/10 04:31:06;;;;;;;;;;;-3.60;96.10;;;;;;5067488;28;19993;-75
2024/01/10 04:33:32;;;;;;;;;;;-2.40;96.30;;;;;;5069370;28;20386;-75
2024/01/10 04:35:57;;;;;;;;;;;-3.10;96.10;;;;;;5102993;28;19962;-76
2024/01/10 04:38:29;;;;;;;;;;;-4.50;95.50;;;;;;5069010;28;19939;-75
2024/01/10 04:40:55;;;;;;;;;;;-2.30;95.90;;;;;;5067064;28;19927;-76
2024/01/10 04:43:20;;;;;;;;;;;-4.30;95.20;;;;;;5102435;28;20089;-76
2024/01/10 04:45:46;;;;;;;;;;;-4.40;95.00;;;;;;5083320;28;19928;-75
2024/01/10 04:48:11;;;;;;;;;;;-4.30;95.00;;;;;;5068774;28;19923;-75
2024/01/10 04:50:37;;;;;;;;;;;-4.30;94.60;;;;;;5065453;28;19927;-75
2024/01/10 04:53:06;;;;;;;;;;;-2.10;95.00;;;;;;5103255;28;19935;-75
2024/01/10 04:55:31;;;;;;;;;;;-3.60;94.40;;;;;;5103533;28;19928;-75
2024/01/10 04:57:57;;;;;;;;;;;-4.40;94.00;;;;;;5066295;28;20377;-75
2024/01/10 05:00:23;;;;;;;;;;;-4.40;93.80;;;;;;5084039;28;19927;-75
2024/01/10 05:02:48;;;;;;;;;;;-4.40;93.60;;;;;;5068657;28;19970;-75
2024/01/10 05:05:14;;;;;;;;;;;-2.30;93.80;;;;;;5065260;28;19935;-75
2024/01/10 05:07:39;;;;;;;;;;;-3.40;93.30;;;;;;5082186;28;20399;-76
2024/01/10 05:10:05;;;;;;;;;;;-2.40;93.50;;;;;;5083388;28;19934;-75
2024/01/10 05:12:31;;;;;;;;;;;-4.30;92.80;;;;;;5073927;28;19988;-75
2024/01/10 05:15:04;;;;;;;;;;;-3.40;92.90;;;;;;5060729;28;19973;-75
2024/01/10 05:17:29;;;;;;;;;;;-4.30;92.40;;;;;;5086627;28;19977;-76
2024/01/10 05:19:55;;;;;;;;;;;-4.20;92.30;;;;;;5084086;28;20263;-76
2024/01/10 05:22:21;;;;;;;;;;;-2.40;92.40;;;;;;5066642;28;20040;-76
2024/01/10 05:24:47;;;;;;;;;;;-4.30;91.40;;;;;;5068415;28;19927;-76
2024/01/10 05:27:13;;;;;;;;;;;-2.50;91.50;;;;;;5085587;28;19931;-75
2024/01/10 05:29:38;;;;;;;;;;;-3.80;91.00;;;;;;5083090;28;19932;-75
2024/01/10 05:32:04;;;;;;;;;;;-4.30;90.60;;;;;;5084396;28;19930;-75
2024/01/10 05:34:30;;;;;;;;;;;-4.30;90.50;;;;;;5083863;28;19947;-75
2024/01/10 05:36:55;;;;;;;;;;;-4.40;90.40;;;;;;5067220;28;20497;-74
2024/01/10 05:39:21;;;;;;;;;;;-2.10;90.90;;;;;;5084125;28;19938;-75
2024/01/10 05:41:47;;;;;;;;;;;-2.60;90.70;;;;;;5067768;28;19938;-75
2024/01/10 05:44:15;;;;;;;;;;;-3.30;90.50;;;;;;5102347;28;19935;-74
2024/01/10 05:46:42;;;;;;;;;;;-4.30;90.40;;;;;;5089430;28;19936;-74
2024/01/10 05:49:10;;;;;;;;;;;-4.40;90.50;;;;;;5089265;28;19928;-74
2024/01/10 05:51:37;;;;;;;;;;;-4.30;90.60;;;;;;5103994;27;19924;-74
2024/01/10 05:54:04;;;;;;;;;;;-3.80;91.00;;;;;;5089336;28;19927;-74
2024/01/10 05:56:29;;;;;;;;;;;-3.50;91.20;;;;;;5075156;28;20297;-74
2024/01/10 05:58:55;;;;;;;;;;;-4.20;91.30;;;;;;5089981;28;20014;-76
2024/01/10 06:01:21;;;;;;;;;;;-4.40;91.60;;;;;;5088070;27;19924;-75
2024/01/10 06:03:47;;;;;;;;;;;-4.30;91.60;;;;;;5106436;27;19924;-73
2024/01/10 06:06:12;;;;;;;;;;;-4.30;91.90;;;;;;5086619;28;19939;-73
2024/01/10 06:08:38;;;;;;;;;;;-3.60;92.40;;;;;;5104904;27;20489;-74
2024/01/10 06:11:06;;;;;;;;;;;-4.30;92.40;;;;;;5083269;27;19936;-76
2024/01/10 06:13:31;;;;;;;;;;;-4.40;92.50;;;;;;5099581;28;20050;-75
2024/01/10 06:15:57;;;;;;;;;;;-3.40;93.00;;;;;;5089280;28;20022;-76
2024/01/10 06:18:22;;;;;;;;;;;-2.80;93.40;;;;;;5075582;28;19932;-76
2024/01/10 06:20:48;;;;;;;;;;;-4.30;93.10;;;;;;5068544;28;20386;-75
2024/01/10 06:23:14;;;;;;;;;;;-4.20;93.40;;;;;;5089023;28;19927;-76
2024/01/10 06:25:39;;;;;;;;;;;-2.60;94.10;;;;;;5057840;28;20370;-76
2024/01/10 06:28:11;;;;;;;;;;;-3.60;93.90;;;;;;5073886;28;19935;-77
2024/01/10 06:30:36;;;;;;;;;;;-4.40;93.90;;;;;;5086195;28;19939;-77
2024/01/10 06:33:02;;;;;;;;;;;-4.10;94.10;;;;;;5072960;28;19934;-77
2024/01/10 06:35:28;;;;;;;;;;;-4.40;94.20;;;;;;5071108;28;19931;-74
2024/01/10 06:37:53;;;;;;;;;;;-4.40;94.30;;;;;;5105881;28;19935;-74
2024/01/10 06:40:21;;;;;;;;;;;-2.30;94.80;;;;;;5067897;28;20309;-75
2024/01/10 06:42:50;;;;;;;;;;;-4.40;94.30;;;;;;5106365;28;19924;-76
2024/01/10 06:45:15;;;;;;;;;;;-4.60;94.40;;;;;;5087020;28;19955;-76
2024/01/10 06:47:44;;;;;;;;;;;-2.60;94.90;;;;;;5071657;28;19929;-76
2024/01/10 06:50:10;;;;;;;;;;;-2.60;95.10;;;;;;5072642;27;20255;-75
2024/01/10 06:52:35;;;;;;;;;;;-4.00;94.70;;;;;;5087634;28;20001;-77
2024/01/10 06:55:01;;;;;;;;;;;-4.50;94.50;;;;;;5086603;28;19924;-76
2024/01/10 06:57:27;;;;;;;;;;;-2.70;94.90;;;;;;5085570;28;20015;-76
2024/01/10 06:59:53;;;;;;;;;;;-4.50;94.60;;;;;;5069308;28;20306;-77
2024/01/10 07:02:18;;;;;;;;;;;-4.60;94.70;;;;;;5089463;28;19980;-75
2024/01/10 07:04:48;;;;;;;;;;;-4.50;94.80;;;;;;5085782;28;19928;-81
2024/01/10 07:07:14;;;;;;;;;;;-4.00;94.90;;;;;;5072241;27;19928;-80
2024/01/10 07:09:40;;;;;;;;;;;-4.50;94.70;;;;;;5085145;28;20253;-76
2024/01/10 07:12:07;;;;;;;;;;;-3.70;95.00;;;;;;5066536;28;19923;-75
2024/01/10 07:14:32;;;;;;;;;;;-4.50;94.70;;;;;;5064063;27;19924;-82
2024/01/10 07:16:59;;;;;;;;;;;-4.20;94.90;;;;;;5051319;28;20353;-76
2024/01/10 07:19:25;;;;;;;;;;;-2.20;95.50;;;;;;5090152;28;20009;-77
2024/01/10 07:21:50;;;;;;;;;;;-4.10;95.20;;;;;;5074300;28;19935;-76
2024/01/10 07:24:16;;;;;;;;;;;-2.20;95.80;;;;;;5091346;28;20131;-77
2024/01/10 07:26:42;;;;;;;;;;;-4.60;95.40;;;;;;5085685;28;19931;-75
2024/01/10 07:29:08;;;;;;;;;;;-3.30;95.40;;;;;;5088993;28;20402;-76
2024/01/10 07:31:34;;;;;;;;;;;-3.60;95.30;;;;;;5066439;28;19924;-76
2024/01/10 07:34:00;;;;;;;;;;;-4.60;95.10;;;;;;5086072;28;19952;-76
2024/01/10 07:36:29;;;;;;;;;;;-4.80;95.20;;;;;;5087118;28;19928;-75
2024/01/10 07:38:58;;;;;;;;;;;-4.50;95.20;;;;;;5069193;28;19976;-75
2024/01/10 07:41:24;;;;;;;;;;;-4.50;95.30;;;;;;5069566;28;19924;-75
2024/01/10 07:43:50;;;;;;;;;;;-3.20;95.70;;;;;;5087597;28;19928;-75
2024/01/10 07:46:16;;;;;;;;;;;-3.30;95.80;;;;;;5087428;28;20004;-75
2024/01/10 07:48:41;;;;;;;;;;;-4.50;95.50;;;;;;5085422;28;19979;-75
2024/01/10 07:51:08;;;;;;;;;;;-2.70;96.00;;;;;;5087673;28;19927;-75
2024/01/10 07:53:34;;;;;;;;;;;-4.50;95.50;;;;;;5088008;28;19972;-75
2024/01/10 07:56:00;;;;;;;;;;;-4.50;95.50;;;;;;5070984;28;19928;-75
2024/01/10 07:58:25;;;;;;;;;;;-2.60;95.90;;;;;;5068128;28;19936;-75
2024/01/10 08:00:51;;;;;;;;;;;-4.50;95.40;;;;;;5085346;28;20331;-75
2024/01/10 08:03:17;;;;;;;;;;;-4.50;95.30;;;;;;5067545;28;19982;-75
2024/01/10 08:05:43;;;;;;;;;;;-3.50;95.40;;;;;;5071086;28;19984;-75
2024/01/10 08:08:09;;;;;;;;;;;-4.50;95.10;;;;;;5101439;28;20450;-75
2024/01/10 08:10:36;;;;;;;;;;;-4.40;95.10;;;;;;5085493;28;19928;-75
2024/01/10 08:13:01;;;;;;;;;;;-4.10;95.00;;;;;;5084195;28;19924;-76
2024/01/10 08:15:30;;;;;;;;;;;-4.40;94.90;;;;;;5104777;28;19942;-75
2024/01/10 08:17:55;;;;;;;;;;;-4.40;94.60;;;;;;5085256;28;20014;-75
2024/01/10 08:20:22;;;;;;;;;;;-4.60;94.50;;;;;;5083405;28;20002;-74
2024/01/10 08:22:48;;;;;;;;;;;-4.60;94.40;;;;;;5100750;28;20010;-74
2024/01/10 08:25:15;;;;;;;;;;;-4.40;94.20;;;;;;5070986;28;19973;-74
2024/01/10 08:27:41;;;;;;;;;;;-4.30;94.20;;;;;;5070862;28;19934;-74
2024/01/10 08:30:09;;;;;;;;;;;-4.50;94.00;;;;;;5067645;28;20325;-74
2024/01/10 08:32:36;;;;;;;;;;;-4.30;93.80;;;;;;5098970;28;19932;-74
2024/01/10 08:35:04;;;;;;;;;;;-4.40;93.60;;;;;;5087328;28;19957;-74
2024/01/10 08:37:30;;;;;;;;;;;-4.20;93.40;;;;;;5103493;28;19931;-74
2024/01/10 08:39:56;;;;;;;;;;;-3.30;93.40;;;;;;5071314;28;19928;-74
2024/01/10 08:42:21;;;;;;;;;;;-4.20;93.10;;;;;;5085023;28;20461;-75
2024/01/10 08:44:47;;;;;;;;;;;-2.10;92.80;;;;;;5086062;28;19934;-76
2024/01/10 08:47:13;;;;;;;;;;;-3.10;92.10;;;;;;5085675;28;19973;-74
2024/01/10 08:49:39;;;;;;;;;;;-4.10;91.40;;;;;;5069397;28;19973;-75
2024/01/10 08:52:11;;;;;;;;;;;-1.50;94.30;;;;;;5069034;28;19928;-75
2024/01/10 08:54:37;;;;;;;;;;;-2.00;95.80;;;;;;5085793;28;19932;-75
2024/01/10 08:57:03;;;;;;;;;;;-0.80;93.30;;;;;;5084874;28;19946;-75
2024/01/10 08:59:28;;;;;;;;;;;0.50;90.60;;;;;;5066737;28;19931;-76
2024/01/10 09:01:56;;;;;;;;;;;1.60;75.20;;;;;;5086861;28;20329;-75
2024/01/10 09:04:21;;;;;;;;;;;3.30;51.50;;;;;;5070582;28;19928;-75
2024/01/10 09:06:50;;;;;;;;;;;3.10;93.40;;;;;;5101782;28;19932;-78
2024/01/10 09:09:20;;;;;;;;;;;4.30;99.90;;;;;;5068401;28;19961;-80
2024/01/10 09:11:47;;;;;;;;;;;4.20;99.90;;;;;;5104097;28;19924;-80
2024/01/10 09:14:13;;;;;;;;;;;4.70;99.90;;;;;;5080935;28;19982;-74
2024/01/10 09:16:39;;;;;;;;;;;4.80;99.90;;;;;;5088037;28;19967;-79
2024/01/10 09:19:05;;;;;;;;;;;3.40;99.90;;;;;;5103172;28;19923;-76
2024/01/10 09:21:31;;;;;;;;;;;2.40;99.90;;;;;;5092246;28;20050;-77
2024/01/10 09:23:57;;;;;;;;;;;3.00;99.90;;;;;;5074158;28;19974;-74
2024/01/10 09:26:23;;;;;;;;;;;0.80;99.90;;;;;;5089516;28;20527;-77
2024/01/10 09:28:49;;;;;;;;;;;2.00;99.90;;;;;;5088612;28;20428;-76
2024/01/10 09:31:15;;;;;;;;;;;1.30;1.00;;;;;;5091002;28;19932;-77
2024/01/10 09:33:41;;;;;;;;;;;1.00;1.00;;;;;;5092692;28;19928;-76
2024/01/10 09:36:07;;;;;;;;;;;2.20;1.00;;;;;;5092792;28;19986;-78
2024/01/10 09:38:38;;;;;;;;;;;1.00;1.00;;;;;;5075130;27;19969;-77
2024/01/10 09:41:04;;;;;;;;;;;0.70;1.00;;;;;;5089969;28;20333;-77
2024/01/10 09:43:30;;;;;;;;;;;2.60;1.00;;;;;;5089813;28;19944;-76
2024/01/10 09:45:57;;;;;;;;;;;1.40;1.00;;;;;;5088737;28;19931;-80
2024/01/10 09:48:24;;;;;;;;;;;1.40;1.00;;;;;;5089409;27;19981;-77
2024/01/10 09:50:50;;;;;;;;;;;0.90;1.00;;;;;;5057248;28;19924;-77
2024/01/10 09:53:26;;;;;;;;;;;1.00;1.00;;;;;;5092854;28;19927;-77
2024/01/10 09:55:52;;;;;;;;;;;1.00;1.00;;;;;;5092903;28;19935;-77
2024/01/10 09:58:18;;;;;;;;;;;1.50;1.00;;;;;;5092523;27;19927;-76
2024/01/10 10:00:44;;;;;;;;;;;1.30;1.00;;;;;;5089986;28;20370;-77
2024/01/10 10:03:16;;;;;;;;;;;1.50;1.00;;;;;;5084417;28;19931;-76
2024/01/10 10:05:42;;;;;;;;;;;2.90;1.00;;;;;;5089834;28;19949;-76
2024/01/10 10:08:09;;;;;;;;;;;3.00;1.00;;;;;;5089179;28;19928;-78
2024/01/10 10:10:35;;;;;;;;;;;1.80;1.00;;;;;;5091328;28;19927;-75
2024/01/10 10:13:02;;;;;;;;;;;2.00;99.90;;;;;;5091826;28;20398;-75
2024/01/10 10:15:27;;;;;;;;;;;2.70;99.90;;;;;;5091586;28;20358;-75
2024/01/10 10:17:54;;;;;;;;;;;3.70;99.90;;;;;;5088949;28;19927;-75
2024/01/10 10:20:24;;;;;;;;;;;3.30;99.90;;;;;;5089215;28;19976;-77
2024/01/10 10:23:03;;;;;;;;;;;4.10;99.90;;;;;;5104707;28;20508;-74
2024/01/10 10:25:37;;;;;;;;;;;3.20;99.90;;;;;;5089850;28;19947;-76
2024/01/10 10:28:04;;;;;;;;;;;2.70;99.90;;;;;;5075359;28;20029;-77
2024/01/10 10:30:35;;;;;;;;;;;2.70;99.90;;;;;;5090846;28;20060;-77
2024/01/10 10:33:01;;;;;;;;;;;3.50;99.90;;;;;;5092121;28;20429;-76
2024/01/10 10:35:27;;;;;;;;;;;3.60;99.90;;;;;;5090150;28;19935;-77
2024/01/10 10:37:53;;;;;;;;;;;4.30;99.90;;;;;;5088458;28;19980;-77
2024/01/10 10:40:20;;;;;;;;;;;5.50;99.90;;;;;;5106168;28;19931;-78
2024/01/10 10:42:46;;;;;;;;;;;7.30;99.90;;;;;;5090389;28;19928;-78
2024/01/10 10:45:17;;;;;;;;;;;8.20;99.90;;;;;;5092136;28;19927;-77
2024/01/10 10:47:45;;;;;;;;;;;8.90;97.70;;;;;;5107668;28;20065;-77
2024/01/10 10:50:20;;;;;;;;;;;8.70;97.00;;;;;;5090686;28;20425;-78
2024/01/10 10:52:47;;;;;;;;;;;8.30;96.60;;;;;;5090869;28;20384;-78
2024/01/10 10:55:14;;;;;;;;;;;6.00;95.70;;;;;;5089514;28;20379;-77
2024/01/10 10:57:43;;;;;;;;;;;7.60;95.80;;;;;;5070691;28;19935;-77
2024/01/10 11:00:10;;;;;;;;;;;7.40;95.70;;;;;;5088466;28;20413;-76
2024/01/10 11:02:37;;;;;;;;;;;6.80;95.80;;;;;;5102229;28;20903;-77
2024/01/10 11:05:03;;;;;;;;;;;5.90;96.20;;;;;;5084012;28;20459;-77
2024/01/10 11:07:29;;;;;;;;;;;5.10;95.90;;;;;;5088673;28;19935;-77
2024/01/10 11:09:55;;;;;;;;;;;4.50;97.80;;;;;;5064699;28;20278;-77
2024/01/10 11:12:33;;;;;;;;;;;4.00;98.20;;;;;;5085793;28;19954;-77
2024/01/10 11:15:24;;;;;;;;;;;3.30;98.70;;;;;;5086849;28;20397;-77
2024/01/10 11:18:02;;;;;;;;;;;2.90;99.90;;;;;;5083535;28;19972;-76
2024/01/10 11:20:37;;;;;;;;;;;2.50;99.90;;;;;;5098962;28;19931;-77
2024/01/10 11:23:10;;;;;;;;;;;2.20;99.90;;;;;;5085775;28;19924;-76
2024/01/10 11:25:36;;;;;;;;;;;1.80;99.90;;;;;;5084702;28;20635;-77
2024/01/10 11:28:03;;;;;;;;;;;1.90;99.90;;;;;;5072798;28;19971;-80
2024/01/10 11:30:35;;;;;;;;;;;1.40;99.90;;;;;;5071097;28;20051;-81
2024/01/10 11:33:02;;;;;;;;;;;1.20;99.90;;;;;;5088149;27;19973;-79
2024/01/10 11:35:31;;;;;;;;;;;2.00;99.90;;;;;;5069866;28;20022;-80
2024/01/10 11:38:05;;;;;;;;;;;0.30;1.00;;;;;;5087102;28;19923;-81
2024/01/10 11:40:47;;;;;;;;;;;2.40;15.40;;;;;;5092808;28;19931;-79
2024/01/10 11:43:15;;;;;;;;;;;0.60;1.00;;;;;;5086242;28;19931;-81
2024/01/10 11:45:52;;;;;;;;;;;0.40;99.90;;;;;;5058660;28;19927;-82
2024/01/10 11:48:26;;;;;;;;;;;0.30;99.90;;;;;;5075444;28;19941;-81
2024/01/10 11:50:52;;;;;;;;;;;-0.20;99.90;;;;;;5071613;28;19985;-82
2024/01/10 11:53:39;;;;;;;;;;;0.10;99.90;;;;;;5087447;28;19936;-75
2024/01/10 11:56:13;;;;;;;;;;;0.00;99.90;;;;;;5081877;28;20024;-76
2024/01/10 11:58:59;;;;;;;;;;;-0.10;99.90;;;;;;5082272;28;19931;-76
2024/01/10 12:01:27;;;;;;;;;;;0.60;99.90;;;;;;5069865;28;19924;-76
2024/01/10 12:03:53;;;;;;;;;;;-0.20;22.90;;;;;;5090267;28;19923;-75
2024/01/10 12:06:21;;;;;;;;;;;-0.20;99.90;;;;;;5074577;28;20018;-75
2024/01/10 12:08:52;;;;;;;;;;;-0.30;99.90;;;;;;5105533;28;19930;-76
2024/01/10 12:11:21;;;;;;;;;;;0.30;99.90;;;;;;5088929;28;19928;-76
2024/01/10 12:13:47;;;;;;;;;;;-0.30;99.90;;;;;;5086670;28;19954;-76
2024/01/10 12:16:13;;;;;;;;;;;-0.50;99.90;;;;;;5087899;28;20633;-76
2024/01/10 12:18:40;;;;;;;;;;;-2.20;99.90;;;;;;5069541;28;19939;-75
2024/01/10 12:21:05;;;;;;;;;;;-0.50;99.90;;;;;;5089009;28;19924;-76
2024/01/10 12:23:34;;;;;;;;;;;-0.50;99.90;;;;;;5085216;28;20417;-76
2024/01/10 12:26:04;;;;;;;;;;;-0.50;99.90;;;;;;5087139;28;19950;-75
2024/01/10 12:28:30;;;;;;;;;;;-0.50;99.90;;;;;;5086409;28;19931;-75
2024/01/10 12:30:57;;;;;;;;;;;-0.50;99.90;;;;;;5084912;28;19935;-75
2024/01/10 12:33:23;;;;;;;;;;;-0.50;99.90;;;;;;5073025;28;19928;-76
2024/01/10 12:36:11;;;;;;;;;;;-0.60;1.00;;;;;;5086030;28;19971;-75
2024/01/10 12:38:40;;;;;;;;;;;-0.60;1.00;;;;;;5067116;28;19927;-76
2024/01/10 12:41:08;;;;;;;;;;;-0.60;1.00;;;;;;5083496;28;20003;-76
2024/01/10 12:43:34;;;;;;;;;;;0.30;1.00;;;;;;5071177;28;19993;-77
2024/01/10 12:46:13;;;;;;;;;;;-0.60;1.00;;;;;;5084164;28;19927;-76
2024/01/10 12:48:42;;;;;;;;;;;-0.60;1.00;;;;;;5100972;28;19939;-77
2024/01/10 12:51:08;;;;;;;;;;;-0.60;1.00;;;;;;5085639;28;19928;-77
2024/01/10 12:53:43;;;;;;;;;;;-0.60;1.00;;;;;;5071531;28;19928;-77
2024/01/10 12:56:13;;;;;;;;;;;-0.60;1.00;;;;;;5088438;28;19928;-76
2024/01/10 12:58:40;;;;;;;;;;;-0.60;12.70;;;;;;5105265;28;19928;-76
2024/01/10 13:01:05;;;;;;;;;;;0.50;65.90;;;;;;5086378;27;20259;-76
2024/01/10 13:03:33;;;;;;;;;;;0.10;18.90;;;;;;5074895;28;19927;-77
2024/01/10 13:05:59;;;;;;;;;;;-0.60;1.00;;;;;;5071598;28;19934;-77
2024/01/10 13:08:24;;;;;;;;;;;-0.20;73.00;;;;;;5087251;28;19942;-77
2024/01/10 13:10:50;;;;;;;;;;;-0.60;30.80;;;;;;5075826;28;20574;-77
2024/01/10 13:13:17;;;;;;;;;;;-0.60;86.30;;;;;;5089944;28;19936;-77
2024/01/10 13:15:43;;;;;;;;;;;-0.60;94.40;;;;;;5091736;28;20022;-73
2024/01/10 13:18:15;;;;;;;;;;;0.70;36.60;;;;;;5091438;28;19934;-76
2024/01/10 13:20:43;;;;;;;;;;;0.90;42.30;;;;;;5089834;28;19931;-82
2024/01/10 13:23:08;;;;;;;;;;;-0.60;56.50;;;;;;5091786;28;19955;-82
2024/01/10 13:25:34;;;;;;;;;;;-0.60;26.20;;;;;;5089184;28;19927;-78
2024/01/10 13:28:00;;;;;;;;;;;-0.60;33.70;;;;;;5110914;28;19927;-80
2024/01/10 13:30:26;;;;;;;;;;;-0.60;1.00;;;;;;5087284;28;20283;-71
2024/01/10 13:32:52;;;;;;;;;;;-0.60;46.00;;;;;;5106220;28;19934;-73
2024/01/10 13:35:22;;;;;;;;;;;-0.60;95.40;;;;;;5105275;27;19963;-75
2024/01/10 13:37:47;;;;;;;;;;;-0.60;99.90;;;;;;5091092;28;19978;-76
2024/01/10 13:40:13;;;;;;;;;;;0.10;99.90;;;;;;5089341;27;19970;-77
2024/01/10 13:42:40;;;;;;;;;;;-0.60;99.90;;;;;;5072475;28;20002;-77
2024/01/10 13:45:07;;;;;;;;;;;-0.10;99.90;;;;;;5105261;27;20837;-76
2024/01/10 13:47:36;;;;;;;;;;;-0.60;99.90;;;;;;5104996;27;19924;-77
2024/01/10 13:50:03;;;;;;;;;;;-0.60;99.90;;;;;;5089579;28;19932;-77
2024/01/10 13:52:29;;;;;;;;;;;-0.70;99.90;;;;;;5087420;28;19978;-77
2024/01/10 13:54:55;;;;;;;;;;;-0.70;99.90;;;;;;5071604;28;20369;-77
2024/01/10 13:57:23;;;;;;;;;;;0.60;99.90;;;;;;5085792;28;20014;-76
2024/01/10 13:59:49;;;;;;;;;;;0.70;99.90;;;;;;5089592;28;19965;-77
2024/01/10 14:02:14;;;;;;;;;;;-0.70;99.90;;;;;;5071077;28;19951;-76
2024/01/10 14:04:41;;;;;;;;;;;0.00;99.90;;;;;;5087586;28;20298;-76
2024/01/10 14:07:06;;;;;;;;;;;-0.30;99.90;;;;;;5101244;27;20040;-75
2024/01/10 14:09:32;;;;;;;;;;;-0.60;99.90;;;;;;5086135;28;20328;-76
2024/01/10 14:11:58;;;;;;;;;;;-0.60;99.90;;;;;;5105313;27;19928;-76
2024/01/10 14:14:23;;;;;;;;;;;-0.20;99.90;;;;;;5068003;27;19931;-76
2024/01/10 14:16:49;;;;;;;;;;;-0.70;99.90;;;;;;5086942;28;19978;-77
2024/01/10 14:19:21;;;;;;;;;;;-0.70;99.90;;;;;;5086494;27;20019;-76